createdAt,value
2023-04-21T00:02:07.514Z,22.41
2023-04-21T00:04:35.911Z,22.83
2023-04-21T00:07:04.539Z,22.71
2023-04-21T00:09:32.082Z,22.65
2023-04-21T00:11:59.868Z,22.14
2023-04-21T00:14:27.450Z,22.32
2023-04-21T00:16:54.917Z,22.40
2023-04-21T00:19:23.877Z,22.17
2023-04-21T00:21:51.608Z,22.71
2023-04-21T00:24:19.142Z,22.82
2023-04-21T00:26:46.619Z,23.55
2023-04-21T00:29:14.205Z,23.43
2023-04-21T00:31:41.816Z,23.88
2023-04-21T00:34:09.513Z,23.30
2023-04-21T00:36:37.102Z,22.64
2023-04-21T00:39:04.697Z,23.97
2023-04-21T00:41:34.193Z,22.58
2023-04-21T00:44:11.739Z,22.16
2023-04-21T00:46:39.458Z,21.92
2023-04-21T00:49:07.970Z,22.45
2023-04-21T00:51:37.138Z,22.39
2023-04-21T00:54:06.015Z,22.43
2023-04-21T00:56:36.052Z,22.40
2023-04-21T00:59:04.332Z,22.56
2023-04-21T01:01:34.412Z,22.88
2023-04-21T01:04:04.015Z,21.61
2023-04-21T01:06:33.119Z,21.51
2023-04-21T01:09:01.627Z,22.03
2023-04-21T01:11:29.202Z,22.10
2023-04-21T01:13:59.165Z,21.85
2023-04-21T01:16:27.246Z,22.08
2023-04-21T01:18:55.525Z,21.66
2023-04-21T01:21:23.756Z,22.08
2023-04-21T01:23:51.555Z,22.87
2023-04-21T01:26:21.660Z,22.47
2023-04-21T01:28:49.911Z,22.87
2023-04-21T01:31:18.646Z,22.61
2023-04-21T01:33:46.245Z,22.43
2023-04-21T01:36:13.819Z,22.55
2023-04-21T01:38:42.495Z,22.33
2023-04-21T01:41:10.910Z,23.29
2023-04-21T01:43:38.785Z,23.55
2023-04-21T01:46:06.625Z,23.79
2023-04-21T01:48:34.397Z,23.64
2023-04-21T01:51:02.033Z,23.36
2023-04-21T01:53:29.612Z,23.86
2023-04-21T01:55:57.242Z,23.67
2023-04-21T01:58:24.874Z,23.97
2023-04-21T02:00:52.480Z,24.87
2023-04-21T02:03:20.367Z,24.21
2023-04-21T02:05:48.041Z,24.59
2023-04-21T02:08:17.176Z,24.08
2023-04-21T02:10:44.648Z,23.88
2023-04-21T02:13:14.493Z,24.20
2023-04-21T02:15:42.236Z,24.59
2023-04-21T02:18:10.419Z,24.93
2023-04-21T02:20:38.585Z,24.73
2023-04-21T02:23:07.480Z,24.36
2023-04-21T02:25:35.106Z,25.45
2023-04-21T02:28:03.135Z,24.65
2023-04-21T02:30:31.007Z,25.45
2023-04-21T02:32:58.824Z,25.62
2023-04-21T02:35:26.441Z,25.53
2023-04-21T02:37:54.083Z,24.92
2023-04-21T02:40:23.998Z,24.81
2023-04-21T02:42:53.151Z,25.31
2023-04-21T02:45:20.768Z,25.27
2023-04-21T02:47:48.965Z,25.81
2023-04-21T02:50:16.755Z,27.21
2023-04-21T02:52:44.486Z,25.40
2023-04-21T02:55:12.088Z,25.48
2023-04-21T02:57:39.761Z,26.66
2023-04-21T03:00:08.143Z,25.10
2023-04-21T03:02:36.265Z,24.87
2023-04-21T03:05:04.342Z,25.19
2023-04-21T03:07:32.493Z,25.14
2023-04-21T03:10:00.253Z,25.20
2023-04-21T03:12:28.502Z,24.92
2023-04-21T03:14:56.194Z,24.97
2023-04-21T03:17:23.823Z,25.17
2023-04-21T03:19:52.034Z,25.06
2023-04-21T03:22:19.674Z,25.43
2023-04-21T03:24:47.222Z,24.93
2023-04-21T03:27:14.821Z,25.16
2023-04-21T03:29:42.492Z,24.47
2023-04-21T03:32:10.106Z,24.75
2023-04-21T03:34:37.672Z,24.34
2023-04-21T03:37:06.228Z,24.39
2023-04-21T03:39:33.834Z,24.38
2023-04-21T03:42:02.385Z,23.89
2023-04-21T03:44:31.018Z,23.69
2023-04-21T03:46:58.728Z,23.84
2023-04-21T03:49:26.357Z,23.65
2023-04-21T03:51:53.932Z,23.12
2023-04-21T03:54:21.526Z,22.75
2023-04-21T03:56:49.071Z,22.94
2023-04-21T03:59:17.221Z,22.95
2023-04-21T04:01:45.799Z,22.98
2023-04-21T04:04:13.612Z,23.03
2023-04-21T04:06:41.764Z,23.32
2023-04-21T04:09:10.363Z,22.84
2023-04-21T04:11:37.958Z,23.24
2023-04-21T04:14:05.560Z,22.64
2023-04-21T04:16:35.079Z,22.76
2023-04-21T04:19:03.747Z,22.67
2023-04-21T04:21:32.586Z,22.85
2023-04-21T04:24:02.370Z,22.23
2023-04-21T04:26:29.951Z,22.10
2023-04-21T04:28:57.511Z,22.11
2023-04-21T04:31:25.544Z,21.98
2023-04-21T04:33:55.305Z,22.13
2023-04-21T04:36:24.558Z,22.44
2023-04-21T04:38:52.233Z,22.12
2023-04-21T04:41:20.970Z,22.67
2023-04-21T04:43:48.623Z,21.84
2023-04-21T04:46:17.359Z,22.36
2023-04-21T04:48:45.017Z,22.67
2023-04-21T04:51:12.691Z,22.17
2023-04-21T04:53:40.250Z,21.45
2023-04-21T04:56:07.852Z,21.86
2023-04-21T04:58:35.821Z,21.92
2023-04-21T05:01:16.628Z,21.30
2023-04-21T05:03:45.727Z,22.05
2023-04-21T05:06:14.300Z,22.21
2023-04-21T05:08:42.304Z,22.19
2023-04-21T05:11:09.870Z,22.20
2023-04-21T05:13:39.760Z,21.52
2023-04-21T05:16:09.799Z,21.55
2023-04-21T05:18:37.965Z,22.07
2023-04-21T05:21:05.727Z,22.14
2023-04-21T05:23:33.470Z,22.49
2023-04-21T05:26:03.985Z,22.21
2023-04-21T05:28:32.253Z,21.40
2023-04-21T05:30:59.835Z,21.59
2023-04-21T05:33:27.771Z,22.02
2023-04-21T05:35:55.299Z,22.14
2023-04-21T05:38:23.015Z,21.98
2023-04-21T05:40:56.764Z,20.07
2023-04-21T05:43:24.632Z,20.93
2023-04-21T05:45:52.264Z,20.60
2023-04-21T05:48:20.170Z,21.25
2023-04-21T05:50:47.887Z,21.06
2023-04-21T05:53:15.494Z,20.03
2023-04-21T05:55:43.036Z,20.25
2023-04-21T05:58:10.870Z,20.23
2023-04-21T06:00:38.584Z,20.32
2023-04-21T06:03:07.086Z,20.76
2023-04-21T06:05:35.283Z,19.92
2023-04-21T06:08:03.475Z,19.73
2023-04-21T06:10:31.241Z,19.63
2023-04-21T06:12:58.767Z,19.06
2023-04-21T06:15:26.343Z,19.91
2023-04-21T06:17:57.470Z,20.02
2023-04-21T06:20:25.097Z,19.81
2023-04-21T06:22:52.668Z,19.73
2023-04-21T06:25:20.491Z,19.86
2023-04-21T06:27:48.123Z,19.81
2023-04-21T06:30:15.967Z,18.61
2023-04-21T06:32:46.138Z,18.17
2023-04-21T06:35:15.615Z,18.87
2023-04-21T06:37:43.173Z,18.88
2023-04-21T06:40:12.437Z,18.52
2023-04-21T06:42:40.436Z,19.97
2023-04-21T06:45:09.844Z,18.45
2023-04-21T06:47:37.685Z,18.19
2023-04-21T06:50:08.992Z,17.79
2023-04-21T06:52:36.720Z,19.41
2023-04-21T06:55:04.670Z,18.10
2023-04-21T06:57:32.184Z,18.62
2023-04-21T06:59:59.973Z,18.53
2023-04-21T07:02:27.905Z,19.04
2023-04-21T07:04:55.846Z,18.07
2023-04-21T07:07:23.459Z,17.92
2023-04-21T07:09:51.180Z,17.53
2023-04-21T07:12:18.852Z,17.65
2023-04-21T07:14:46.345Z,18.97
2023-04-21T07:17:15.256Z,18.26
2023-04-21T07:19:42.922Z,18.69
2023-04-21T07:22:10.607Z,18.98
2023-04-21T07:24:38.258Z,20.10
2023-04-21T07:27:05.811Z,18.53
2023-04-21T07:29:34.360Z,18.60
2023-04-21T07:32:02.025Z,18.61
2023-04-21T07:34:29.538Z,17.94
2023-04-21T07:36:57.396Z,18.09
2023-04-21T07:39:24.923Z,18.11
2023-04-21T07:41:52.719Z,18.91
2023-04-21T07:44:20.814Z,19.05
2023-04-21T07:46:48.584Z,18.48
2023-04-21T07:49:16.380Z,18.76
2023-04-21T07:51:44.014Z,18.88
2023-04-21T07:54:11.547Z,18.34
2023-04-21T07:56:40.126Z,18.67
2023-04-21T07:59:07.762Z,18.86
2023-04-21T08:01:35.306Z,18.14
2023-04-21T08:04:03.055Z,17.67
2023-04-21T08:06:33.364Z,17.29
2023-04-21T08:09:01.229Z,19.21
2023-04-21T08:11:28.889Z,17.54
2023-04-21T08:13:57.714Z,17.05
2023-04-21T08:16:25.509Z,17.40
2023-04-21T08:18:54.198Z,17.54
2023-04-21T08:21:21.803Z,17.72
2023-04-21T08:23:49.452Z,15.76
2023-04-21T08:26:17.686Z,16.34
2023-04-21T08:28:49.895Z,16.87
2023-04-21T08:31:18.962Z,15.29
2023-04-21T08:34:01.260Z,16.16
2023-04-21T08:36:30.733Z,15.02
2023-04-21T08:38:59.536Z,16.82
2023-04-21T08:41:27.736Z,15.98
2023-04-21T08:43:55.704Z,15.06
2023-04-21T08:46:23.692Z,16.35
2023-04-21T08:48:52.973Z,15.67
2023-04-21T08:51:24.354Z,16.32
2023-04-21T08:53:54.462Z,16.28
2023-04-21T08:56:23.609Z,15.48
2023-04-21T08:58:51.204Z,16.20
2023-04-21T09:01:19.069Z,15.26
2023-04-21T09:03:47.103Z,15.55
2023-04-21T09:06:15.304Z,14.29
2023-04-21T09:08:44.518Z,15.39
2023-04-21T09:11:15.297Z,15.14
2023-04-21T09:13:43.948Z,14.61
2023-04-21T09:16:23.576Z,15.16
2023-04-21T09:18:51.565Z,13.68
2023-04-21T09:21:20.293Z,15.63
2023-04-21T09:23:48.830Z,14.51
2023-04-21T09:26:18.097Z,14.89
2023-04-21T09:28:47.446Z,13.78
2023-04-21T09:31:16.667Z,13.94
2023-04-21T09:33:57.584Z,14.94
2023-04-21T09:36:29.952Z,14.30
2023-04-21T09:39:24.305Z,13.99
2023-04-21T09:41:47.453Z,15.47
2023-04-21T09:44:14.988Z,14.72
2023-04-21T09:46:44.565Z,13.87
2023-04-21T09:49:16.827Z,13.47
2023-04-21T09:52:09.644Z,12.82
2023-04-21T09:54:34.638Z,11.99
2023-04-21T09:57:04.609Z,14.36
2023-04-21T09:59:40.757Z,12.80
2023-04-21T10:02:09.828Z,12.16
2023-04-21T10:04:39.843Z,12.12
2023-04-21T10:07:10.623Z,11.17
2023-04-21T10:10:09.216Z,11.83
2023-04-21T10:12:37.012Z,13.40
2023-04-21T10:15:06.547Z,12.00
2023-04-21T10:17:38.308Z,12.79
2023-04-21T10:20:07.215Z,12.03
2023-04-21T10:22:36.366Z,12.28
2023-04-21T10:25:08.498Z,11.36
2023-04-21T10:27:45.482Z,10.05
2023-04-21T10:30:24.204Z,11.10
2023-04-21T10:33:05.776Z,10.88
2023-04-21T10:36:00.003Z,11.08
2023-04-21T10:38:33.982Z,11.56
2023-04-21T10:41:33.612Z,11.14
2023-04-21T10:44:16.096Z,10.71
2023-04-21T10:46:47.481Z,12.25
2023-04-21T10:49:32.398Z,11.19
2023-04-21T10:52:00.183Z,13.56
2023-04-21T10:54:45.740Z,12.71
2023-04-21T10:57:19.532Z,10.65
2023-04-21T10:59:48.089Z,9.69
2023-04-21T11:02:18.188Z,10.11
2023-04-21T11:04:50.841Z,11.12
2023-04-21T11:07:20.743Z,13.09
2023-04-21T11:09:56.672Z,13.82
2023-04-21T11:12:30.516Z,13.34
2023-04-21T11:14:58.009Z,14.63
2023-04-21T11:17:25.875Z,14.54
2023-04-21T11:19:55.404Z,13.35
2023-04-21T11:22:25.278Z,10.86
2023-04-21T11:24:57.254Z,10.82
2023-04-21T11:27:27.759Z,11.71
2023-04-21T11:29:55.666Z,15.57
2023-04-21T11:32:23.872Z,12.81
2023-04-21T11:34:51.784Z,12.47
2023-04-21T11:37:26.968Z,11.83
2023-04-21T11:39:59.564Z,13.10
2023-04-21T11:42:27.858Z,13.19
2023-04-21T11:44:56.627Z,13.75
2023-04-21T11:47:26.675Z,13.10
2023-04-21T11:49:56.853Z,14.11
2023-04-21T11:52:28.898Z,15.30
2023-04-21T11:55:04.902Z,14.02
2023-04-21T11:57:33.912Z,15.37
2023-04-21T12:00:04.446Z,15.83
2023-04-21T12:02:34.634Z,15.18
2023-04-21T12:05:11.153Z,14.29
2023-04-21T12:07:41.994Z,13.90
2023-04-21T12:10:17.472Z,14.93
2023-04-21T12:12:46.000Z,14.22
2023-04-21T12:15:19.753Z,13.11
2023-04-21T12:17:49.043Z,12.91
2023-04-21T12:20:19.023Z,13.58
2023-04-21T12:22:47.359Z,11.58
2023-04-21T12:25:15.519Z,10.82
2023-04-21T12:27:53.198Z,13.49
2023-04-21T12:30:21.851Z,10.54
2023-04-21T12:32:49.643Z,10.89
2023-04-21T12:35:17.600Z,10.64
2023-04-21T12:37:45.611Z,10.72
2023-04-21T12:40:14.526Z,9.72
2023-04-21T12:42:42.121Z,11.41
2023-04-21T12:45:10.023Z,11.12
2023-04-21T12:47:37.826Z,12.47
2023-04-21T12:50:06.020Z,12.48
2023-04-21T12:52:33.707Z,11.91
2023-04-21T12:55:01.398Z,13.58
2023-04-21T12:57:29.136Z,13.68
2023-04-21T12:59:58.441Z,13.90
2023-04-21T13:02:26.076Z,13.88
2023-04-21T13:04:54.020Z,14.08
2023-04-21T13:07:22.665Z,13.83
2023-04-21T13:09:50.891Z,13.55
2023-04-21T13:12:18.460Z,14.03
2023-04-21T13:14:46.299Z,14.69
2023-04-21T13:17:15.925Z,13.43
2023-04-21T13:19:43.816Z,14.13
2023-04-21T13:22:11.532Z,14.72
2023-04-21T13:24:39.067Z,14.74
2023-04-21T13:27:06.848Z,13.68
2023-04-21T13:29:34.955Z,14.40
2023-04-21T13:32:04.462Z,13.95
2023-04-21T13:34:33.980Z,14.15
2023-04-21T13:37:02.201Z,14.64
2023-04-21T13:39:30.129Z,14.20
2023-04-21T13:41:58.363Z,14.12
2023-04-21T13:44:25.966Z,13.45
2023-04-21T13:46:54.231Z,13.99
2023-04-21T13:49:21.928Z,14.26
2023-04-21T13:51:49.528Z,13.76
2023-04-21T13:54:17.066Z,13.89
2023-04-21T13:56:44.644Z,14.19
2023-04-21T13:59:14.765Z,14.50
2023-04-21T14:01:42.734Z,14.28
2023-04-21T14:04:10.481Z,13.12
2023-04-21T14:06:38.204Z,13.86
2023-04-21T14:09:06.459Z,13.88
2023-04-21T14:11:34.168Z,13.39
2023-04-21T14:14:09.508Z,14.24
2023-04-21T14:16:38.740Z,13.54
2023-04-21T14:19:06.801Z,13.22
2023-04-21T14:21:34.798Z,14.58
2023-04-21T14:24:02.502Z,14.38
2023-04-21T14:26:30.124Z,13.51
2023-04-21T14:28:59.607Z,13.90
2023-04-21T14:31:27.965Z,13.40
2023-04-21T14:33:55.616Z,14.29
2023-04-21T14:36:23.202Z,14.87
2023-04-21T14:38:50.893Z,14.10
2023-04-21T14:41:18.742Z,13.82
2023-04-21T14:43:47.682Z,13.71
2023-04-21T14:46:17.272Z,13.61
2023-04-21T14:48:45.114Z,12.32
2023-04-21T14:51:12.775Z,13.05
2023-04-21T14:53:40.848Z,13.67
2023-04-21T14:56:08.403Z,13.92
2023-04-21T14:58:36.042Z,14.38
2023-04-21T15:01:04.438Z,14.06
2023-04-21T15:03:32.413Z,13.55
2023-04-21T15:06:00.194Z,13.79
2023-04-21T15:08:28.143Z,13.70
2023-04-21T15:10:56.772Z,13.57
2023-04-21T15:13:24.471Z,13.87
2023-04-21T15:15:52.237Z,13.97
2023-04-21T15:18:21.046Z,13.57
2023-04-21T15:20:48.778Z,13.44
2023-04-21T15:23:16.580Z,13.48
2023-04-21T15:25:44.181Z,13.60
2023-04-21T15:28:13.052Z,12.42
2023-04-21T15:30:40.737Z,12.62
2023-04-21T15:33:08.510Z,12.71
2023-04-21T15:35:36.392Z,12.69
2023-04-21T15:38:04.585Z,12.63
2023-04-21T15:40:32.224Z,13.00
2023-04-21T15:42:59.743Z,12.65
2023-04-21T15:45:31.655Z,11.95
2023-04-21T15:47:59.350Z,13.73
2023-04-21T15:50:27.091Z,12.81
2023-04-21T15:52:54.700Z,12.84
2023-04-21T15:55:25.179Z,13.28
2023-04-21T15:57:52.741Z,12.85
2023-04-21T16:00:20.719Z,12.41
2023-04-21T16:02:48.717Z,12.63
2023-04-21T16:05:17.216Z,12.62
2023-04-21T16:07:44.924Z,10.98
2023-04-21T16:10:12.603Z,11.01
2023-04-21T16:12:40.377Z,10.78
2023-04-21T16:15:23.070Z,11.38
2023-04-21T16:17:52.156Z,11.41
2023-04-21T16:20:20.066Z,11.12
2023-04-21T16:22:50.495Z,12.10
2023-04-21T16:25:19.128Z,12.24
2023-04-21T16:27:46.941Z,11.53
2023-04-21T16:30:14.723Z,12.13
2023-04-21T16:32:42.350Z,12.21
2023-04-21T16:35:11.508Z,12.23
2023-04-21T16:37:40.622Z,12.37
2023-04-21T16:40:09.792Z,13.29
2023-04-21T16:42:41.489Z,12.68
2023-04-21T16:45:09.896Z,13.95
2023-04-21T16:47:41.700Z,14.22
2023-04-21T16:50:10.408Z,13.99
2023-04-21T16:52:38.179Z,13.65
2023-04-21T16:55:06.445Z,13.55
2023-04-21T16:57:34.905Z,13.68
2023-04-21T17:00:05.661Z,13.81
2023-04-21T17:02:34.279Z,14.85
2023-04-21T17:05:02.250Z,14.59
2023-04-21T17:07:32.053Z,14.25
2023-04-21T17:10:01.738Z,15.02
2023-04-21T17:12:29.540Z,14.67
2023-04-21T17:14:57.094Z,15.57
2023-04-21T17:17:24.721Z,15.21
2023-04-21T17:19:53.616Z,14.97
2023-04-21T17:22:21.336Z,15.47
2023-04-21T17:24:53.531Z,15.73
2023-04-21T17:27:21.611Z,16.05
2023-04-21T17:29:49.193Z,17.12
2023-04-21T17:32:17.052Z,16.98
2023-04-21T17:34:44.831Z,17.36
2023-04-21T17:37:12.480Z,17.47
2023-04-21T17:39:40.888Z,17.61
2023-04-21T17:42:11.466Z,16.79
2023-04-21T17:44:40.971Z,16.92
2023-04-21T17:47:09.142Z,18.00
2023-04-21T17:49:37.294Z,17.49
2023-04-21T17:52:05.935Z,18.11
2023-04-21T17:54:33.493Z,18.77
2023-04-21T17:57:04.930Z,18.50
2023-04-21T17:59:32.857Z,18.52
2023-04-21T18:02:00.968Z,19.33
2023-04-21T18:04:30.772Z,19.21
2023-04-21T18:06:59.144Z,19.50
2023-04-21T18:09:27.068Z,19.68
2023-04-21T18:11:54.661Z,19.76
2023-04-21T18:14:22.712Z,19.58
2023-04-21T18:16:50.679Z,21.41
2023-04-21T18:19:18.569Z,20.41
2023-04-21T18:21:46.582Z,20.30
2023-04-21T18:24:14.722Z,20.91
2023-04-21T18:26:43.082Z,21.28
2023-04-21T18:29:10.871Z,21.02
2023-04-21T18:31:39.383Z,21.58
2023-04-21T18:34:08.676Z,22.31
2023-04-21T18:36:38.238Z,21.82
2023-04-21T18:39:06.526Z,21.89
2023-04-21T18:41:34.325Z,21.78
2023-04-21T18:44:02.175Z,21.71
2023-04-21T18:46:29.911Z,21.88
2023-04-21T18:49:00.506Z,22.15
2023-04-21T18:51:31.044Z,22.16
2023-04-21T18:53:58.875Z,22.26
2023-04-21T18:56:27.118Z,22.84
2023-04-21T18:58:55.131Z,22.76
2023-04-21T19:01:23.611Z,22.78
2023-04-21T19:03:52.079Z,23.10
2023-04-21T19:06:20.018Z,22.92
2023-04-21T19:08:51.114Z,22.87
2023-04-21T19:11:18.916Z,22.86
2023-04-21T19:13:48.196Z,22.54
2023-04-21T19:16:16.707Z,22.72
2023-04-21T19:18:44.473Z,23.56
2023-04-21T19:21:13.652Z,24.56
2023-04-21T19:23:41.737Z,24.64
2023-04-21T19:26:11.869Z,24.39
2023-04-21T19:28:42.919Z,24.06
2023-04-21T19:31:10.696Z,23.93
2023-04-21T19:33:38.561Z,23.85
2023-04-21T19:36:06.757Z,26.96
2023-04-21T19:38:34.652Z,24.71
2023-04-21T19:41:02.377Z,26.87
2023-04-21T19:43:30.185Z,26.74
2023-04-21T19:45:58.726Z,25.86
2023-04-21T19:48:27.074Z,25.17
2023-04-21T19:50:54.678Z,25.11
2023-04-21T19:53:22.196Z,25.73
2023-04-21T19:55:52.575Z,24.53
2023-04-21T19:58:38.350Z,25.05
2023-04-21T20:01:07.904Z,24.68
2023-04-21T20:03:37.382Z,24.63
2023-04-21T20:06:06.461Z,24.84
2023-04-21T20:08:35.567Z,25.18
2023-04-21T20:11:03.181Z,24.78
2023-04-21T20:13:31.221Z,25.49
2023-04-21T20:15:59.281Z,25.78
2023-04-21T20:18:27.355Z,26.22
2023-04-21T20:20:54.974Z,25.68
2023-04-21T20:23:22.634Z,25.43
2023-04-21T20:25:50.597Z,26.07
2023-04-21T20:28:18.464Z,25.18
2023-04-21T20:30:46.063Z,25.46
2023-04-21T20:33:13.970Z,25.86
2023-04-21T20:35:44.117Z,25.56
2023-04-21T20:38:12.101Z,26.25
2023-04-21T20:40:40.215Z,26.25
2023-04-21T20:43:07.912Z,26.03
2023-04-21T20:45:35.658Z,26.27
2023-04-21T20:48:04.517Z,25.69
2023-04-21T20:50:32.308Z,25.73
2023-04-21T20:53:00.204Z,26.09
2023-04-21T20:55:27.909Z,25.42
2023-04-21T20:57:55.457Z,25.21
2023-04-21T21:00:23.480Z,25.38
2023-04-21T21:02:51.078Z,25.88
2023-04-21T21:05:19.084Z,25.64
2023-04-21T21:07:46.688Z,26.29
2023-04-21T21:10:16.775Z,25.87
2023-04-21T21:12:45.918Z,25.33
2023-04-21T21:15:13.511Z,25.62
2023-04-21T21:17:41.151Z,25.63
2023-04-21T21:20:09.454Z,26.02
2023-04-21T21:22:37.280Z,26.16
2023-04-21T21:25:05.289Z,26.26
2023-04-21T21:27:32.860Z,26.92
2023-04-21T21:30:00.654Z,25.64
2023-04-21T21:32:28.266Z,26.19
2023-04-21T21:34:55.970Z,28.75
2023-04-21T21:37:24.477Z,28.29
2023-04-21T21:39:52.726Z,26.67
2023-04-21T21:42:20.280Z,26.25
2023-04-21T21:44:47.867Z,26.26
2023-04-21T21:47:15.497Z,26.14
2023-04-21T21:49:43.594Z,26.44
2023-04-21T21:52:11.531Z,25.31
2023-04-21T21:54:39.056Z,25.45
2023-04-21T21:57:06.982Z,26.17
2023-04-21T21:59:34.645Z,26.16
2023-04-21T22:02:02.295Z,26.81
2023-04-21T22:04:29.995Z,26.78
2023-04-21T22:06:57.961Z,26.08
2023-04-21T22:09:25.679Z,25.97
2023-04-21T22:11:54.844Z,25.95
2023-04-21T22:14:23.665Z,26.37
2023-04-21T22:16:52.689Z,26.79
2023-04-21T22:19:20.886Z,27.44
2023-04-21T22:21:49.534Z,27.44
2023-04-21T22:24:17.089Z,26.52
2023-04-21T22:26:44.841Z,26.78
2023-04-21T22:29:12.718Z,25.96
2023-04-21T22:31:40.501Z,26.59
2023-04-21T22:34:08.199Z,27.26
2023-04-21T22:36:36.489Z,25.72
2023-04-21T22:39:04.683Z,26.32
2023-04-21T22:41:32.652Z,26.47
2023-04-21T22:44:00.244Z,26.93
2023-04-21T22:46:31.984Z,25.73
2023-04-21T22:49:02.321Z,26.49
2023-04-21T22:51:32.527Z,26.58
2023-04-21T22:54:00.739Z,26.77
2023-04-21T22:56:30.856Z,25.94
2023-04-21T22:58:58.578Z,26.93
2023-04-21T23:01:27.560Z,25.80
2023-04-21T23:03:55.396Z,26.10
2023-04-21T23:06:23.256Z,26.19
2023-04-21T23:08:51.226Z,26.18
2023-04-21T23:11:20.296Z,26.27
2023-04-21T23:13:48.025Z,25.74
2023-04-21T23:16:15.638Z,25.83
2023-04-21T23:18:43.223Z,25.49
2023-04-21T23:21:11.024Z,27.16
2023-04-21T23:23:38.659Z,27.26
2023-04-21T23:26:06.244Z,27.23
2023-04-21T23:28:33.826Z,26.81
2023-04-21T23:31:01.394Z,26.07
2023-04-21T23:33:29.121Z,26.12
2023-04-21T23:35:57.238Z,26.23
2023-04-21T23:38:24.984Z,26.45
2023-04-21T23:40:52.716Z,27.18
2023-04-21T23:43:20.400Z,26.58
2023-04-21T23:45:48.199Z,26.71
2023-04-21T23:48:15.778Z,27.48
2023-04-21T23:50:43.635Z,25.97
2023-04-21T23:53:11.336Z,25.57
2023-04-21T23:55:38.976Z,25.94
2023-04-21T23:58:07.304Z,26.78
